createdAt,value
2023-01-17T07:00:47.232Z,7.86
2023-01-17T07:09:08.810Z,8.02
2023-01-17T07:11:35.827Z,8.08
2023-01-17T07:14:02.825Z,8.13
2023-01-17T07:16:29.980Z,8.26
2023-01-17T07:18:58.225Z,8.31
2023-01-17T07:21:25.179Z,8.33
2023-01-17T07:23:52.072Z,8.43
2023-01-17T07:26:19.099Z,8.48
2023-01-17T07:28:45.879Z,8.62
2023-01-17T07:31:13.136Z,8.75
2023-01-17T07:33:40.128Z,8.85
2023-01-17T07:36:08.058Z,8.84
2023-01-17T07:38:35.621Z,8.85
2023-01-17T07:41:02.850Z,8.88
2023-01-17T07:43:30.189Z,8.93
2023-01-17T07:45:57.143Z,9.02
2023-01-17T07:48:24.978Z,9.00
2023-01-17T07:53:30.428Z,8.57
2023-01-17T08:12:02.107Z,10.99
2023-01-17T08:31:17.992Z,11.06
2023-01-17T08:33:45.023Z,10.93
2023-01-17T08:38:43.207Z,11.31
2023-01-17T08:41:13.652Z,11.45
2023-01-17T08:43:41.034Z,11.68
2023-01-17T08:46:08.109Z,11.80
2023-01-17T08:48:35.404Z,11.91
2023-01-17T08:51:02.956Z,11.84
2023-01-17T08:53:30.527Z,11.84
2023-01-17T08:55:59.697Z,11.94
2023-01-17T08:58:31.499Z,12.05
2023-01-17T15:04:55.802Z,13.08
2023-01-17T19:37:47.310Z,12.70
2023-01-17T19:40:16.358Z,12.68
2023-01-17T19:42:43.937Z,12.66
2023-01-17T19:47:54.876Z,12.67
2023-01-17T19:55:47.754Z,12.70
2023-01-17T20:01:01.544Z,12.71
2023-01-17T20:06:08.100Z,12.68
2023-01-17T20:08:36.285Z,12.69
2023-01-17T20:11:08.830Z,12.68
2023-01-17T20:13:35.779Z,12.68
2023-01-17T20:16:08.618Z,12.65
2023-01-17T20:18:36.508Z,12.64
2023-01-17T20:21:11.126Z,12.71
2023-01-17T20:23:43.160Z,12.67
2023-01-17T20:26:11.993Z,12.66
2023-01-17T20:28:40.891Z,12.64
2023-01-17T20:31:19.815Z,12.62
2023-01-17T20:33:47.840Z,12.59
2023-01-17T20:36:16.346Z,12.62
2023-01-17T20:38:44.524Z,12.67
2023-01-17T20:41:24.798Z,12.60
2023-01-17T20:43:54.222Z,12.58
2023-01-17T20:46:22.868Z,12.57
2023-01-17T20:48:51.977Z,12.54
2023-01-17T20:51:19.790Z,12.60
2023-01-17T20:53:50.956Z,12.56
2023-01-17T20:56:18.996Z,12.55
2023-01-17T20:58:45.974Z,12.61
2023-01-17T21:01:19.567Z,12.65
2023-01-17T21:03:49.439Z,12.62
2023-01-17T21:06:16.302Z,12.63
2023-01-17T21:08:44.681Z,12.63
2023-01-17T21:11:15.396Z,12.66
2023-01-17T21:13:43.028Z,12.59
2023-01-17T21:16:12.829Z,12.53
2023-01-17T21:18:40.530Z,12.56
2023-01-17T21:21:13.066Z,12.50
2023-01-17T21:26:16.783Z,12.46
2023-01-17T21:28:45.346Z,12.61
2023-01-17T21:31:25.942Z,12.67
2023-01-17T21:33:56.889Z,12.69
2023-01-17T21:36:27.436Z,12.79
2023-01-17T21:38:57.225Z,12.84
2023-01-17T21:41:26.953Z,12.84
2023-01-17T21:43:57.975Z,12.86
2023-01-17T21:46:25.940Z,12.93
2023-01-17T21:48:53.056Z,12.99
2023-01-17T21:51:21.913Z,13.01
2023-01-17T21:53:48.960Z,12.97
2023-01-17T21:56:34.151Z,12.97
2023-01-17T21:59:01.851Z,13.00
2023-01-17T22:01:32.345Z,12.98
2023-01-17T22:04:01.739Z,13.01
2023-01-17T22:06:31.199Z,13.01
2023-01-17T22:08:58.850Z,13.02
2023-01-17T22:11:27.245Z,12.96
2023-01-17T22:13:54.107Z,13.00
2023-01-17T22:16:24.180Z,12.95
2023-01-17T22:18:52.055Z,13.03
2023-01-17T22:21:24.786Z,13.02
2023-01-17T22:23:56.931Z,13.00
2023-01-17T22:26:42.768Z,12.95
2023-01-17T22:29:11.452Z,12.75
2023-01-17T22:31:38.263Z,12.69
2023-01-17T22:34:05.340Z,12.71
2023-01-17T22:36:33.580Z,12.67
2023-01-17T22:39:01.187Z,12.58
2023-01-17T22:41:34.773Z,12.57
2023-01-17T22:44:02.553Z,12.51
2023-01-17T22:46:32.411Z,12.50
2023-01-17T22:49:00.687Z,12.32
2023-01-17T22:51:29.047Z,12.27
2023-01-17T22:53:58.028Z,12.33
2023-01-17T22:56:43.515Z,12.33
2023-01-17T22:59:11.853Z,12.31
2023-01-17T23:01:57.319Z,12.24
2023-01-17T23:04:24.098Z,12.25
2023-01-17T23:06:50.919Z,12.13
2023-01-17T23:09:18.021Z,12.03
2023-01-17T23:11:54.129Z,12.03
2023-01-17T23:14:22.350Z,11.93
2023-01-17T23:17:15.309Z,11.86
2023-01-17T23:19:51.148Z,11.86
2023-01-17T23:22:27.184Z,11.93
2023-01-17T23:24:56.622Z,11.89
2023-01-17T23:35:35.492Z,11.75
2023-01-17T23:38:21.753Z,11.84
2023-01-17T23:41:07.840Z,12.02
2023-01-17T23:43:36.554Z,12.06
2023-01-17T23:46:04.979Z,12.10
